Time;durP1;ratioP1;P1;durP2;ratioP2;P2;SDS_P1;SDS_P2;PMS_P1;PMS_P2;Temp;Humidity;BMP_temperature;BMP_pressure;BME280_temperature;BME280_humidity;BME280_pressure;Samples;Min_cycle;Max_cycle;Signal;HPM_P1;HPM_P2
2022/02/06 00:01:33;;;;;;;1.55;0.70;;;;;;;;;;5117473;27;20030;-67
2022/02/06 00:04:00;;;;;;;0.90;0.52;;;;;;;;;;5117063;27;20042;-67
2022/02/06 00:06:26;;;;;;;1.10;0.47;;;;;;;;;;5135840;27;20043;-67
2022/02/06 00:08:52;;;;;;;1.70;0.60;;;;;;;;;;5135688;27;20061;-67
2022/02/06 00:11:19;;;;;;;1.35;0.70;;;;;;;;;;5135749;27;20051;-68
2022/02/06 00:13:45;;;;;;;0.75;0.60;;;;;;;;;;5135537;27;20616;-68
2022/02/06 00:16:11;;;;;;;1.77;0.98;;;;;;;;;;5135671;27;20482;-67
2022/02/06 00:18:39;;;;;;;0.80;0.70;;;;;;;;;;5135142;27;20055;-67
2022/02/06 00:21:11;;;;;;;1.15;0.80;;;;;;;;;;5135694;27;20039;-67
2022/02/06 00:23:37;;;;;;;1.35;0.63;;;;;;;;;;5135457;27;20034;-67
2022/02/06 00:26:14;;;;;;;1.45;0.70;;;;;;;;;;5135579;27;20027;-67
2022/02/06 00:28:46;;;;;;;1.23;0.80;;;;;;;;;;5135023;27;20026;-67
2022/02/06 00:31:30;;;;;;;1.05;0.50;;;;;;;;;;5116789;27;20031;-67
2022/02/06 00:34:33;;;;;;;1.70;0.90;;;;;;;;;;5135211;27;20019;-67
2022/02/06 00:39:44;;;;;;;0.85;0.63;;;;;;;;;;5135273;27;20039;-67
2022/02/06 00:42:11;;;;;;;1.00;0.70;;;;;;;;;;5134937;27;20027;-67
2022/02/06 00:44:37;;;;;;;0.82;0.52;;;;;;;;;;5134670;27;20076;-67
2022/02/06 00:47:03;;;;;;;1.52;0.73;;;;;;;;;;5135371;27;20035;-67
2022/02/06 00:49:30;;;;;;;1.60;0.85;;;;;;;;;;5134703;27;20026;-67
2022/02/06 00:52:00;;;;;;;1.73;0.85;;;;;;;;;;5135346;27;20031;-67
2022/02/06 00:54:26;;;;;;;1.30;0.80;;;;;;;;;;5134371;27;20138;-67
2022/02/06 00:56:53;;;;;;;1.90;0.70;;;;;;;;;;5134773;27;20034;-67
2022/02/06 00:59:20;;;;;;;1.85;0.93;;;;;;;;;;5134426;27;20019;-67
2022/02/06 01:01:46;;;;;;;1.40;0.80;;;;;;;;;;5134813;27;20076;-67
2022/02/06 01:04:13;;;;;;;0.95;0.50;;;;;;;;;;5133882;27;20039;-67
2022/02/06 01:06:39;;;;;;;1.08;0.50;;;;;;;;;;5134353;27;20110;-67
2022/02/06 01:09:06;;;;;;;1.38;0.88;;;;;;;;;;5134598;27;20066;-67
2022/02/06 01:11:34;;;;;;;1.17;0.73;;;;;;;;;;5134714;27;20063;-68
2022/02/06 01:16:37;;;;;;;1.02;0.60;;;;;;;;;;5134765;27;20046;-67
2022/02/06 01:19:19;;;;;;;1.55;0.73;;;;;;;;;;5134079;27;20435;-67
2022/02/06 01:21:51;;;;;;;1.17;0.55;;;;;;;;;;5134638;27;20027;-67
2022/02/06 01:24:22;;;;;;;0.97;0.60;;;;;;;;;;5134114;27;20401;-68
2022/02/06 01:29:35;;;;;;;1.17;0.77;;;;;;;;;;5133823;27;20049;-68
2022/02/06 01:32:06;;;;;;;1.42;0.60;;;;;;;;;;5134472;27;20026;-68
2022/02/06 01:35:00;;;;;;;1.10;0.80;;;;;;;;;;5133854;27;20107;-67
2022/02/06 01:38:10;;;;;;;1.13;0.50;;;;;;;;;;5133546;27;20486;-67
2022/02/06 01:40:16;;;;;;;1.35;0.70;;;;;;;;;;5124977;27;20058;-67
2022/02/06 01:42:53;;;;;;;1.23;0.65;;;;;;;;;;5133847;27;20576;-67
2022/02/06 02:02:46;;;;;;;1.75;0.82;;;;;;;;;;5134169;27;20038;-68
2022/02/06 02:05:19;;;;;;;1.10;0.70;;;;;;;;;;5114854;27;20039;-68
2022/02/06 02:12:42;;;;;;;0.98;0.68;;;;;;;;;;5133359;27;20024;-68
2022/02/06 02:31:22;;;;;;;1.00;0.75;;;;;;;;;;5133106;28;20019;-68
2022/02/06 02:47:26;;;;;;;1.20;0.70;;;;;;;;;;5132947;28;20024;-68
2022/02/06 02:52:32;;;;;;;1.77;0.90;;;;;;;;;;5133268;28;20061;-68
2022/02/06 02:55:14;;;;;;;1.23;0.60;;;;;;;;;;5100035;28;20080;-68
2022/02/06 03:05:57;;;;;;;1.48;0.75;;;;;;;;;;5086796;28;20224;-68
2022/02/06 03:08:23;;;;;;;0.98;0.60;;;;;;;;;;5133330;28;20031;-68
2022/02/06 03:10:52;;;;;;;1.35;0.90;;;;;;;;;;5132430;28;20031;-68
2022/02/06 03:13:20;;;;;;;1.38;0.80;;;;;;;;;;5133123;28;20015;-68
2022/02/06 03:18:27;;;;;;;0.85;0.60;;;;;;;;;;5133924;27;20023;-68
2022/02/06 03:20:54;;;;;;;2.22;0.80;;;;;;;;;;5136305;27;20028;-68
2022/02/06 03:23:21;;;;;;;0.90;0.70;;;;;;;;;;5136771;27;20076;-68
2022/02/06 03:25:53;;;;;;;1.65;0.90;;;;;;;;;;5136253;27;20030;-68
2022/02/06 03:28:19;;;;;;;1.08;0.60;;;;;;;;;;5119402;27;20394;-68
2022/02/06 03:30:45;;;;;;;0.93;0.60;;;;;;;;;;5136449;27;20156;-68
2022/02/06 03:33:12;;;;;;;2.03;0.80;;;;;;;;;;5118230;27;20397;-68
2022/02/06 03:35:39;;;;;;;0.95;0.50;;;;;;;;;;5136168;27;20026;-68
2022/02/06 03:38:05;;;;;;;1.60;1.00;;;;;;;;;;5136447;27;20042;-68
2022/02/06 03:40:39;;;;;;;1.40;0.60;;;;;;;;;;5136329;27;20493;-68
2022/02/06 03:43:12;;;;;;;2.45;0.60;;;;;;;;;;5136239;27;20034;-68
2022/02/06 03:45:50;;;;;;;1.58;0.90;;;;;;;;;;5136043;27;20031;-68
2022/02/06 03:48:41;;;;;;;1.92;0.70;;;;;;;;;;5136394;27;20388;-68
2022/02/06 03:51:16;;;;;;;1.00;0.60;;;;;;;;;;5135859;27;20026;-68
2022/02/06 03:53:44;;;;;;;2.80;1.05;;;;;;;;;;5136023;27;20015;-68
2022/02/06 03:56:10;;;;;;;1.30;0.80;;;;;;;;;;5135492;27;20031;-68
2022/02/06 03:58:38;;;;;;;1.80;0.70;;;;;;;;;;5136429;27;20033;-68
2022/02/06 04:01:04;;;;;;;1.50;0.63;;;;;;;;;;5135607;27;20031;-68
2022/02/06 04:03:30;;;;;;;1.40;0.60;;;;;;;;;;5135742;27;20091;-68
2022/02/06 04:05:57;;;;;;;1.33;0.68;;;;;;;;;;5116998;27;20034;-68
2022/02/06 04:08:23;;;;;;;0.93;0.68;;;;;;;;;;5135910;27;20504;-68
2022/02/06 04:10:52;;;;;;;1.05;0.63;;;;;;;;;;5135365;27;20047;-68
2022/02/06 04:13:24;;;;;;;1.55;0.70;;;;;;;;;;5135755;27;20022;-68
2022/02/06 04:15:57;;;;;;;1.45;0.63;;;;;;;;;;5135278;27;20110;-68
2022/02/06 04:18:40;;;;;;;1.23;0.80;;;;;;;;;;5135703;27;20098;-68
2022/02/06 04:21:06;;;;;;;0.90;0.75;;;;;;;;;;5135437;27;20035;-68
2022/02/06 04:23:32;;;;;;;1.63;0.80;;;;;;;;;;5135579;27;20019;-68
2022/02/06 04:25:58;;;;;;;1.35;0.68;;;;;;;;;;5135111;27;20027;-68
2022/02/06 04:28:24;;;;;;;0.80;0.55;;;;;;;;;;5135477;27;20026;-68
2022/02/06 04:30:50;;;;;;;1.20;0.75;;;;;;;;;;5134459;27;20015;-68
2022/02/06 04:33:19;;;;;;;1.15;0.68;;;;;;;;;;5135404;27;20016;-68
2022/02/06 04:35:46;;;;;;;1.15;0.80;;;;;;;;;;5135167;27;20023;-68
2022/02/06 04:44:09;;;;;;;1.38;0.65;;;;;;;;;;5090769;28;20028;-68
2022/02/06 04:49:38;;;;;;;1.20;0.70;;;;;;;;;;5114603;28;20081;-68
2022/02/06 05:14:20;;;;;;;2.83;0.98;;;;;;;;;;5134383;27;20135;-68
2022/02/06 05:17:01;;;;;;;1.52;0.80;;;;;;;;;;5133923;27;20042;-68
2022/02/06 05:22:31;;;;;;;1.40;0.52;;;;;;;;;;5134313;27;20059;-68
2022/02/06 05:30:46;;;;;;;1.60;0.80;;;;;;;;;;5134409;27;20506;-68
2022/02/06 05:33:12;;;;;;;2.35;1.40;;;;;;;;;;5134005;27;20132;-68
2022/02/06 05:35:39;;;;;;;1.08;0.90;;;;;;;;;;5134136;27;20030;-68
2022/02/06 05:38:06;;;;;;;1.15;0.90;;;;;;;;;;5134353;27;20443;-68
2022/02/06 05:40:32;;;;;;;1.73;1.00;;;;;;;;;;5134079;27;20019;-68
2022/02/06 05:42:58;;;;;;;1.80;1.00;;;;;;;;;;5114322;27;20030;-69
2022/02/06 05:45:24;;;;;;;1.17;0.85;;;;;;;;;;5134135;27;20389;-68
2022/02/06 05:47:51;;;;;;;1.27;0.90;;;;;;;;;;5133762;27;20034;-68
2022/02/06 05:50:18;;;;;;;1.80;1.05;;;;;;;;;;5134207;27;20470;-67
2022/02/06 05:52:44;;;;;;;1.73;1.00;;;;;;;;;;5133305;27;20027;-68
2022/02/06 05:55:11;;;;;;;2.55;1.02;;;;;;;;;;5133590;27;20072;-68
2022/02/06 05:57:37;;;;;;;1.65;0.88;;;;;;;;;;5115246;27;20106;-68
2022/02/06 06:00:04;;;;;;;1.52;1.02;;;;;;;;;;5133913;27;20076;-68
2022/02/06 06:02:30;;;;;;;1.55;0.90;;;;;;;;;;5133165;27;20034;-68
2022/02/06 06:04:56;;;;;;;1.33;0.85;;;;;;;;;;5133818;27;20405;-68
2022/02/06 06:07:23;;;;;;;1.33;1.00;;;;;;;;;;5133294;27;20027;-68
2022/02/06 06:09:50;;;;;;;1.15;0.88;;;;;;;;;;5133776;27;20015;-68
2022/02/06 06:12:16;;;;;;;1.75;1.00;;;;;;;;;;5133468;27;20027;-68
2022/02/06 06:14:47;;;;;;;1.77;1.13;;;;;;;;;;5133499;27;20400;-68
2022/02/06 06:17:13;;;;;;;1.95;1.20;;;;;;;;;;5133075;27;20033;-68
2022/02/06 06:19:44;;;;;;;2.80;1.23;;;;;;;;;;5133340;27;20030;-68
2022/02/06 06:22:11;;;;;;;2.72;1.30;;;;;;;;;;5133025;27;20027;-68
2022/02/06 06:24:44;;;;;;;1.50;0.95;;;;;;;;;;5133441;27;20015;-68
2022/02/06 06:27:10;;;;;;;1.40;1.00;;;;;;;;;;5133405;28;20056;-68
2022/02/06 06:29:36;;;;;;;1.17;1.00;;;;;;;;;;5133412;28;20030;-68
2022/02/06 06:32:03;;;;;;;2.30;0.95;;;;;;;;;;5133313;28;20062;-68
2022/02/06 06:34:29;;;;;;;1.15;0.77;;;;;;;;;;5133136;28;20105;-68
2022/02/06 06:36:55;;;;;;;2.28;1.08;;;;;;;;;;5133189;28;20032;-68
2022/02/06 06:39:33;;;;;;;2.30;1.33;;;;;;;;;;5132978;28;20015;-68
2022/02/06 06:41:59;;;;;;;1.25;1.00;;;;;;;;;;5133001;28;20011;-68
2022/02/06 06:44:25;;;;;;;1.60;0.98;;;;;;;;;;5132954;28;20025;-68
2022/02/06 06:46:51;;;;;;;1.52;0.90;;;;;;;;;;5133142;28;20020;-68
2022/02/06 06:49:17;;;;;;;1.83;1.17;;;;;;;;;;5132968;28;20295;-68
2022/02/06 06:51:44;;;;;;;1.83;0.80;;;;;;;;;;5133200;28;20024;-68
2022/02/06 06:54:15;;;;;;;1.77;0.95;;;;;;;;;;5134961;27;20101;-68
2022/02/06 06:56:50;;;;;;;1.98;1.10;;;;;;;;;;5116886;28;20039;-68
2022/02/06 06:59:43;;;;;;;1.42;0.80;;;;;;;;;;5098261;28;20028;-68
2022/02/06 07:04:46;;;;;;;1.45;0.82;;;;;;;;;;5099902;28;20039;-68
2022/02/06 07:07:12;;;;;;;1.05;0.90;;;;;;;;;;5098451;28;20019;-68
2022/02/06 07:09:38;;;;;;;2.42;1.20;;;;;;;;;;5116692;28;20039;-68
2022/02/06 07:12:06;;;;;;;2.42;0.80;;;;;;;;;;5117219;28;20035;-68
2022/02/06 07:14:32;;;;;;;1.02;0.77;;;;;;;;;;5116937;28;20474;-68
2022/02/06 07:16:58;;;;;;;1.08;0.90;;;;;;;;;;5116867;28;20027;-68
2022/02/06 07:19:24;;;;;;;1.30;0.98;;;;;;;;;;5115869;28;20023;-68
2022/02/06 07:21:50;;;;;;;1.05;0.75;;;;;;;;;;5116965;28;20094;-68
2022/02/06 07:24:18;;;;;;;1.88;0.98;;;;;;;;;;5115823;28;20024;-68
2022/02/06 07:26:47;;;;;;;1.08;0.75;;;;;;;;;;5116149;28;20036;-68
2022/02/06 07:29:16;;;;;;;1.60;0.90;;;;;;;;;;5115702;28;20069;-68
2022/02/06 07:31:43;;;;;;;1.30;0.90;;;;;;;;;;5116142;28;20099;-68
2022/02/06 07:34:09;;;;;;;1.35;0.80;;;;;;;;;;5115548;28;20047;-68
2022/02/06 07:36:35;;;;;;;0.95;0.70;;;;;;;;;;5116353;28;20524;-68
2022/02/06 07:39:02;;;;;;;1.92;0.80;;;;;;;;;;5115694;28;20029;-68
2022/02/06 07:41:28;;;;;;;1.33;0.82;;;;;;;;;;5119815;27;20076;-68
2022/02/06 07:43:54;;;;;;;2.70;1.10;;;;;;;;;;5136312;27;20397;-68
2022/02/06 07:46:24;;;;;;;2.03;1.20;;;;;;;;;;5136313;27;20023;-68
2022/02/06 07:48:50;;;;;;;2.28;0.98;;;;;;;;;;5136293;27;20035;-68
2022/02/06 07:51:16;;;;;;;2.53;1.10;;;;;;;;;;5136296;27;20406;-68
2022/02/06 07:53:43;;;;;;;1.67;0.90;;;;;;;;;;5135751;27;20051;-68
2022/02/06 07:56:09;;;;;;;4.07;0.98;;;;;;;;;;5117481;27;20035;-68
2022/02/06 07:58:35;;;;;;;1.63;0.88;;;;;;;;;;5135869;27;20029;-68
2022/02/06 08:01:01;;;;;;;1.95;1.05;;;;;;;;;;5136358;27;20538;-68
2022/02/06 08:03:27;;;;;;;3.22;0.88;;;;;;;;;;5135658;27;20035;-68
2022/02/06 08:05:53;;;;;;;2.13;0.93;;;;;;;;;;5134880;27;20031;-68
2022/02/06 08:08:19;;;;;;;1.98;0.80;;;;;;;;;;5135845;27;20026;-68
2022/02/06 08:10:46;;;;;;;2.13;0.80;;;;;;;;;;5135574;27;20489;-68
2022/02/06 08:13:24;;;;;;;1.50;0.75;;;;;;;;;;5135784;27;20075;-68
2022/02/06 08:15:50;;;;;;;1.83;0.95;;;;;;;;;;5135874;27;20054;-68
2022/02/06 08:18:16;;;;;;;2.60;1.00;;;;;;;;;;5135613;27;20030;-68
2022/02/06 08:20:43;;;;;;;1.73;1.00;;;;;;;;;;5135392;27;20057;-68
2022/02/06 08:23:09;;;;;;;1.17;0.98;;;;;;;;;;5127228;27;20031;-68
2022/02/06 08:25:35;;;;;;;1.25;0.90;;;;;;;;;;5135480;27;20401;-68
2022/02/06 08:28:01;;;;;;;0.93;0.60;;;;;;;;;;5135631;27;20023;-68
2022/02/06 08:30:30;;;;;;;1.63;0.88;;;;;;;;;;5135245;27;20590;-68
2022/02/06 08:32:56;;;;;;;1.75;0.90;;;;;;;;;;5135822;27;20106;-68
2022/02/06 08:35:23;;;;;;;1.40;0.82;;;;;;;;;;5134956;27;20028;-68
2022/02/06 08:37:50;;;;;;;1.50;0.88;;;;;;;;;;5135289;27;20030;-68
2022/02/06 08:40:17;;;;;;;2.88;0.95;;;;;;;;;;5134816;27;20059;-68
2022/02/06 08:42:44;;;;;;;1.52;1.00;;;;;;;;;;5135187;27;20525;-68
2022/02/06 08:45:11;;;;;;;1.23;0.80;;;;;;;;;;5134556;27;20410;-68
2022/02/06 08:47:38;;;;;;;2.45;0.82;;;;;;;;;;5135230;27;20026;-68
2022/02/06 08:50:04;;;;;;;2.83;1.13;;;;;;;;;;5134648;27;20027;-68
2022/02/06 08:52:33;;;;;;;1.27;0.82;;;;;;;;;;5134799;27;20112;-68
2022/02/06 08:55:00;;;;;;;1.45;0.80;;;;;;;;;;5134537;27;20109;-68
2022/02/06 08:57:27;;;;;;;1.75;0.77;;;;;;;;;;5135117;27;20034;-68
2022/02/06 08:59:54;;;;;;;2.22;0.73;;;;;;;;;;5134715;27;20050;-68
2022/02/06 09:02:20;;;;;;;1.42;0.80;;;;;;;;;;5133454;27;20019;-68
2022/02/06 09:04:46;;;;;;;2.30;0.80;;;;;;;;;;5113786;28;20086;-68
2022/02/06 09:07:12;;;;;;;1.42;0.70;;;;;;;;;;5113852;28;20023;-68
2022/02/06 09:09:43;;;;;;;1.42;0.80;;;;;;;;;;5113860;28;20028;-68
2022/02/06 09:12:10;;;;;;;1.42;0.70;;;;;;;;;;5114215;28;20036;-68
2022/02/06 09:14:37;;;;;;;1.80;0.80;;;;;;;;;;5113907;28;20032;-68
2022/02/06 09:17:03;;;;;;;1.83;1.05;;;;;;;;;;5113878;28;20437;-68
2022/02/06 09:19:31;;;;;;;1.40;0.70;;;;;;;;;;5113466;28;20405;-68
2022/02/06 09:21:59;;;;;;;1.88;0.80;;;;;;;;;;5113800;28;20020;-68
2022/02/06 09:24:25;;;;;;;1.30;0.80;;;;;;;;;;5113782;28;20016;-68
2022/02/06 09:26:51;;;;;;;1.33;0.82;;;;;;;;;;5113390;28;20497;-68
2022/02/06 09:29:17;;;;;;;1.92;0.88;;;;;;;;;;5113573;28;20371;-68
2022/02/06 09:31:49;;;;;;;2.20;0.90;;;;;;;;;;5113639;28;20024;-68
2022/02/06 09:36:42;;;;;;;2.70;1.13;;;;;;;;;;5113886;28;20035;-68
2022/02/06 09:39:09;;;;;;;2.13;1.02;;;;;;;;;;5113595;28;20036;-68
2022/02/06 09:41:37;;;;;;;1.00;0.63;;;;;;;;;;5112965;28;20495;-68
2022/02/06 09:44:03;;;;;;;1.77;0.80;;;;;;;;;;5113356;28;20034;-68
2022/02/06 09:46:29;;;;;;;1.50;0.82;;;;;;;;;;5113035;28;20393;-68
2022/02/06 09:48:56;;;;;;;1.15;0.82;;;;;;;;;;5113731;28;20034;-68
2022/02/06 09:51:23;;;;;;;1.50;0.80;;;;;;;;;;5113581;28;20026;-68
2022/02/06 09:53:49;;;;;;;1.27;0.75;;;;;;;;;;5112959;28;20028;-68
2022/02/06 09:56:16;;;;;;;0.95;0.55;;;;;;;;;;5112739;28;20084;-68
2022/02/06 09:58:56;;;;;;;1.42;0.82;;;;;;;;;;5113349;28;20020;-68
2022/02/06 10:01:24;;;;;;;2.15;0.80;;;;;;;;;;5112823;28;20016;-68
2022/02/06 10:03:51;;;;;;;1.63;1.05;;;;;;;;;;5112979;28;20040;-68
2022/02/06 10:06:31;;;;;;;1.48;0.80;;;;;;;;;;5112685;28;20023;-68
2022/02/06 10:08:59;;;;;;;1.17;0.70;;;;;;;;;;5113219;28;20027;-68
2022/02/06 10:11:28;;;;;;;2.08;1.00;;;;;;;;;;5112538;28;20038;-68
2022/02/06 10:13:54;;;;;;;1.20;0.70;;;;;;;;;;5094611;28;20012;-68
2022/02/06 10:16:20;;;;;;;2.90;0.90;;;;;;;;;;5112614;28;20031;-68
2022/02/06 10:18:46;;;;;;;1.83;0.80;;;;;;;;;;5112942;28;20032;-68
2022/02/06 10:21:16;;;;;;;1.30;0.75;;;;;;;;;;5094569;28;20055;-68
2022/02/06 10:23:58;;;;;;;2.42;0.77;;;;;;;;;;5112822;28;20026;-68
2022/02/06 10:26:33;;;;;;;1.98;0.70;;;;;;;;;;5112537;28;20027;-68
2022/02/06 10:29:22;;;;;;;1.20;0.70;;;;;;;;;;5112509;28;20050;-68
2022/02/06 10:31:54;;;;;;;1.48;0.93;;;;;;;;;;5112511;28;20023;-68
2022/02/06 10:34:21;;;;;;;1.35;0.68;;;;;;;;;;5094533;28;20098;-68
2022/02/06 10:36:48;;;;;;;1.50;0.70;;;;;;;;;;5112369;28;20119;-68
2022/02/06 10:39:16;;;;;;;1.52;0.88;;;;;;;;;;5112799;28;20032;-68
2022/02/06 10:41:49;;;;;;;0.80;0.60;;;;;;;;;;5112122;28;20553;-68
2022/02/06 10:44:15;;;;;;;1.10;0.73;;;;;;;;;;5112661;28;20075;-68
2022/02/06 10:46:55;;;;;;;0.85;0.70;;;;;;;;;;5112307;28;20027;-68
2022/02/06 10:49:22;;;;;;;1.33;0.57;;;;;;;;;;5112796;28;20042;-68
2022/02/06 10:51:51;;;;;;;0.95;0.65;;;;;;;;;;5112270;28;20023;-68
2022/02/06 10:54:29;;;;;;;1.20;0.70;;;;;;;;;;5112305;28;20016;-68
2022/02/06 10:57:15;;;;;;;1.25;0.63;;;;;;;;;;5112268;28;20107;-68
2022/02/06 10:59:41;;;;;;;0.85;0.60;;;;;;;;;;5112689;28;20020;-68
2022/02/06 11:02:08;;;;;;;1.15;0.65;;;;;;;;;;5112166;28;20457;-68
2022/02/06 11:04:36;;;;;;;1.58;0.80;;;;;;;;;;5112233;28;20043;-68
2022/02/06 11:07:14;;;;;;;2.47;0.93;;;;;;;;;;5112204;28;20062;-68
2022/02/06 11:09:40;;;;;;;1.50;0.80;;;;;;;;;;5112455;28;20016;-68
2022/02/06 11:12:11;;;;;;;2.67;0.98;;;;;;;;;;5112318;28;20394;-68
2022/02/06 11:14:45;;;;;;;1.15;0.50;;;;;;;;;;5112582;28;20016;-68
2022/02/06 11:17:20;;;;;;;1.90;0.77;;;;;;;;;;5111958;28;20051;-68
2022/02/06 11:20:06;;;;;;;2.20;0.75;;;;;;;;;;5093905;28;20024;-68
2022/02/06 11:22:33;;;;;;;2.50;0.70;;;;;;;;;;5111750;28;20089;-68
2022/02/06 11:25:01;;;;;;;3.10;0.85;;;;;;;;;;5112342;28;20024;-68
2022/02/06 11:27:28;;;;;;;1.45;0.68;;;;;;;;;;5112132;28;20024;-68
2022/02/06 11:29:56;;;;;;;2.28;0.70;;;;;;;;;;5112584;28;20478;-68
2022/02/06 11:32:24;;;;;;;2.65;0.95;;;;;;;;;;5111926;28;20027;-68
2022/02/06 11:34:50;;;;;;;1.38;0.65;;;;;;;;;;5112308;28;20020;-68
2022/02/06 11:45:55;;;;;;;1.23;0.55;;;;;;;;;;5115361;28;20027;-68
2022/02/06 11:48:22;;;;;;;1.20;0.68;;;;;;;;;;5115303;28;20024;-68
2022/02/06 11:50:50;;;;;;;1.73;0.82;;;;;;;;;;5115907;28;20024;-68
2022/02/06 11:53:38;;;;;;;1.02;0.70;;;;;;;;;;5115330;28;20401;-68
2022/02/06 11:56:21;;;;;;;1.75;0.70;;;;;;;;;;5115187;28;20107;-68
2022/02/06 11:58:48;;;;;;;2.10;0.85;;;;;;;;;;5115559;28;20058;-68
2022/02/06 12:01:14;;;;;;;3.13;0.73;;;;;;;;;;5115458;28;20020;-68
2022/02/06 12:03:50;;;;;;;1.42;0.63;;;;;;;;;;5115122;28;20051;-68
2022/02/06 12:06:16;;;;;;;1.80;0.73;;;;;;;;;;5115011;28;20061;-68
2022/02/06 12:09:01;;;;;;;0.88;0.50;;;;;;;;;;5115036;28;20285;-68
2022/02/06 12:11:27;;;;;;;1.63;0.80;;;;;;;;;;5115235;28;20023;-68
2022/02/06 12:14:28;;;;;;;1.27;0.55;;;;;;;;;;5114909;28;20022;-68
2022/02/06 12:19:41;;;;;;;1.55;0.82;;;;;;;;;;5115282;28;20035;-68
2022/02/06 12:22:26;;;;;;;2.20;0.80;;;;;;;;;;5114899;28;20020;-68
2022/02/06 12:24:53;;;;;;;1.20;0.80;;;;;;;;;;5115096;28;20031;-68
2022/02/06 12:27:23;;;;;;;1.60;0.65;;;;;;;;;;5114831;28;20016;-68
2022/02/06 12:29:52;;;;;;;0.80;0.50;;;;;;;;;;5114544;28;20032;-68
2022/02/06 12:32:39;;;;;;;1.65;0.73;;;;;;;;;;5114788;28;20423;-68
2022/02/06 12:37:54;;;;;;;1.60;0.80;;;;;;;;;;5114745;28;20035;-68
2022/02/06 12:40:21;;;;;;;1.85;0.68;;;;;;;;;;5114769;28;20031;-68
2022/02/06 12:42:49;;;;;;;1.70;0.80;;;;;;;;;;5114211;28;20027;-68
2022/02/06 12:45:20;;;;;;;1.25;0.80;;;;;;;;;;5114597;28;20028;-68
2022/02/06 12:47:47;;;;;;;0.82;0.60;;;;;;;;;;5114399;28;20026;-68
2022/02/06 12:50:18;;;;;;;1.58;0.70;;;;;;;;;;5114121;28;20026;-68
2022/02/06 12:52:44;;;;;;;1.05;0.65;;;;;;;;;;5113844;28;20020;-68
2022/02/06 12:55:11;;;;;;;1.10;0.50;;;;;;;;;;5113994;28;20039;-68
2022/02/06 12:57:53;;;;;;;1.15;0.60;;;;;;;;;;5096047;28;20030;-68
2022/02/06 13:00:24;;;;;;;3.42;0.70;;;;;;;;;;5114423;28;20026;-68
2022/02/06 13:02:51;;;;;;;0.80;0.40;;;;;;;;;;5114091;28;20028;-68
2022/02/06 13:05:17;;;;;;;2.35;0.70;;;;;;;;;;5113907;28;20486;-68
2022/02/06 13:07:46;;;;;;;1.50;0.73;;;;;;;;;;5113924;28;20016;-68
2022/02/06 13:10:13;;;;;;;2.83;0.90;;;;;;;;;;5113948;28;20058;-68
2022/02/06 13:23:44;;;;;;;1.42;0.60;;;;;;;;;;5113975;28;20030;-68
2022/02/06 13:26:26;;;;;;;1.20;0.60;;;;;;;;;;5114077;28;20031;-68
2022/02/06 13:29:06;;;;;;;1.67;0.70;;;;;;;;;;5113559;28;20016;-68
2022/02/06 13:31:47;;;;;;;1.50;0.73;;;;;;;;;;5113669;28;20046;-68
2022/02/06 13:34:28;;;;;;;1.35;0.63;;;;;;;;;;5113323;28;20025;-68
2022/02/06 13:37:06;;;;;;;2.63;0.80;;;;;;;;;;5113768;28;20031;-68
2022/02/06 13:39:37;;;;;;;2.22;0.75;;;;;;;;;;5113439;28;20518;-68
2022/02/06 13:42:18;;;;;;;2.17;0.77;;;;;;;;;;5113452;28;20026;-68
2022/02/06 13:44:46;;;;;;;1.77;0.50;;;;;;;;;;5113347;28;20111;-68
2022/02/06 13:47:12;;;;;;;2.20;0.45;;;;;;;;;;5113446;28;20069;-68
2022/02/06 13:49:44;;;;;;;1.65;0.80;;;;;;;;;;5113165;28;20077;-67
2022/02/06 13:52:12;;;;;;;3.33;0.80;;;;;;;;;;5113457;28;20102;-67
2022/02/06 13:54:41;;;;;;;1.25;0.50;;;;;;;;;;5094415;28;20064;-67
2022/02/06 13:57:08;;;;;;;4.60;0.73;;;;;;;;;;5113332;28;20027;-68
2022/02/06 13:59:35;;;;;;;1.77;0.55;;;;;;;;;;5112887;28;20032;-68
2022/02/06 14:02:04;;;;;;;1.42;0.63;;;;;;;;;;5113318;28;20030;-68
2022/02/06 14:04:39;;;;;;;1.33;0.50;;;;;;;;;;5111820;28;20104;-68
2022/02/06 14:07:06;;;;;;;2.38;0.90;;;;;;;;;;5113101;28;20205;-68
2022/02/06 14:10:22;;;;;;;1.23;0.70;;;;;;;;;;5112763;28;20030;-68
2022/02/06 14:12:20;;;;;;;1.35;0.70;;;;;;;;;;5098249;28;20019;-68
2022/02/06 14:14:50;;;;;;;1.05;0.60;;;;;;;;;;5112672;28;20081;-68
2022/02/06 14:17:21;;;;;;;1.88;0.70;;;;;;;;;;5113093;28;20039;-68
2022/02/06 14:19:48;;;;;;;1.48;0.57;;;;;;;;;;5112465;28;20034;-68
2022/02/06 14:22:31;;;;;;;1.83;0.70;;;;;;;;;;5113063;28;20095;-68
2022/02/06 14:24:58;;;;;;;2.53;0.80;;;;;;;;;;5112551;28;20023;-68
2022/02/06 14:27:41;;;;;;;1.35;0.60;;;;;;;;;;5112938;28;20023;-68
2022/02/06 14:30:09;;;;;;;1.45;0.70;;;;;;;;;;5112559;28;20100;-68
2022/02/06 14:32:35;;;;;;;0.95;0.50;;;;;;;;;;5112901;28;20024;-68
2022/02/06 14:35:06;;;;;;;1.38;0.70;;;;;;;;;;5112542;28;20027;-68
2022/02/06 14:37:51;;;;;;;2.25;0.60;;;;;;;;;;5112789;28;20096;-68
2022/02/06 14:40:37;;;;;;;1.20;0.50;;;;;;;;;;5112553;28;20019;-68
2022/02/06 14:43:14;;;;;;;2.55;0.65;;;;;;;;;;5112536;28;20103;-68
2022/02/06 14:45:49;;;;;;;1.85;0.65;;;;;;;;;;5112390;28;20401;-68
2022/02/06 14:48:16;;;;;;;1.42;0.47;;;;;;;;;;5094270;28;20092;-68
2022/02/06 14:50:49;;;;;;;1.48;0.73;;;;;;;;;;5112106;28;20073;-68
2022/02/06 14:53:15;;;;;;;1.52;0.60;;;;;;;;;;5113131;28;20012;-68
2022/02/06 14:55:42;;;;;;;1.33;0.35;;;;;;;;;;5112355;28;20371;-68
2022/02/06 14:58:09;;;;;;;1.52;0.77;;;;;;;;;;5112985;28;20390;-68
2022/02/06 15:00:35;;;;;;;1.80;0.43;;;;;;;;;;5112205;28;20043;-68
2022/02/06 15:03:01;;;;;;;0.70;0.52;;;;;;;;;;5112393;28;20051;-68
2022/02/06 15:05:28;;;;;;;1.17;0.60;;;;;;;;;;5112181;28;20034;-68
2022/02/06 15:07:54;;;;;;;1.38;0.60;;;;;;;;;;5112309;28;20533;-68
2022/02/06 15:10:21;;;;;;;1.30;0.40;;;;;;;;;;5112255;28;20119;-68
2022/02/06 15:12:47;;;;;;;2.72;0.60;;;;;;;;;;5112097;28;20031;-68
2022/02/06 15:15:14;;;;;;;1.88;0.50;;;;;;;;;;5114597;28;20111;-68
2022/02/06 15:17:40;;;;;;;1.60;0.60;;;;;;;;;;5116067;28;20023;-68
2022/02/06 15:20:07;;;;;;;1.00;0.50;;;;;;;;;;5115860;28;20028;-68
2022/02/06 15:22:33;;;;;;;1.50;0.80;;;;;;;;;;5115984;28;20444;-68
2022/02/06 15:24:59;;;;;;;1.23;0.50;;;;;;;;;;5115828;28;20023;-68
2022/02/06 15:27:25;;;;;;;1.45;0.60;;;;;;;;;;5115929;28;20058;-68
2022/02/06 15:29:51;;;;;;;1.33;0.70;;;;;;;;;;5116469;28;20539;-68
2022/02/06 15:32:20;;;;;;;1.83;0.65;;;;;;;;;;5115677;28;20047;-68
2022/02/06 15:34:46;;;;;;;1.92;0.85;;;;;;;;;;5116057;28;20047;-68
2022/02/06 15:37:15;;;;;;;0.98;0.60;;;;;;;;;;5115579;28;20035;-68
2022/02/06 15:39:41;;;;;;;1.45;0.65;;;;;;;;;;5115980;28;20035;-68
2022/02/06 15:42:12;;;;;;;1.55;0.60;;;;;;;;;;5115437;28;20019;-68
2022/02/06 15:44:39;;;;;;;0.43;0.40;;;;;;;;;;5115866;28;20482;-68
2022/02/06 15:47:06;;;;;;;0.88;0.50;;;;;;;;;;5115288;28;20023;-68
2022/02/06 15:49:34;;;;;;;1.27;0.50;;;;;;;;;;5116081;28;20382;-68
2022/02/06 15:52:00;;;;;;;1.15;0.60;;;;;;;;;;5115277;28;20028;-68
2022/02/06 15:54:26;;;;;;;0.75;0.55;;;;;;;;;;5115044;28;20109;-68
2022/02/06 15:56:52;;;;;;;1.15;0.52;;;;;;;;;;5115349;28;20028;-68
2022/02/06 15:59:19;;;;;;;3.08;0.60;;;;;;;;;;5115498;28;20137;-68
2022/02/06 16:01:45;;;;;;;2.47;0.70;;;;;;;;;;5115448;28;20034;-68
2022/02/06 16:04:11;;;;;;;2.33;0.60;;;;;;;;;;5115339;28;20464;-68
2022/02/06 16:06:37;;;;;;;1.85;0.40;;;;;;;;;;5114985;28;20024;-68
2022/02/06 16:09:04;;;;;;;0.75;0.40;;;;;;;;;;5115432;28;20073;-68
2022/02/06 16:11:32;;;;;;;1.20;0.50;;;;;;;;;;5114917;28;20047;-68
2022/02/06 16:13:58;;;;;;;0.68;0.38;;;;;;;;;;5115556;28;20024;-68
2022/02/06 16:16:27;;;;;;;0.93;0.57;;;;;;;;;;5114968;28;20015;-68
2022/02/06 16:19:02;;;;;;;1.17;0.50;;;;;;;;;;5115160;28;20027;-68
2022/02/06 16:21:29;;;;;;;0.75;0.45;;;;;;;;;;5115005;28;20486;-68
2022/02/06 16:23:58;;;;;;;1.50;0.60;;;;;;;;;;5115281;28;20028;-68
2022/02/06 16:26:25;;;;;;;1.05;0.70;;;;;;;;;;5113950;28;20038;-68
2022/02/06 16:28:53;;;;;;;1.20;0.57;;;;;;;;;;5114691;28;20027;-68
2022/02/06 16:31:21;;;;;;;1.13;0.50;;;;;;;;;;5114683;28;20016;-68
2022/02/06 16:33:47;;;;;;;0.82;0.50;;;;;;;;;;5114644;28;20024;-68
2022/02/06 16:36:13;;;;;;;1.45;0.60;;;;;;;;;;5114840;28;20027;-68
2022/02/06 16:38:40;;;;;;;0.80;0.60;;;;;;;;;;5114804;28;20028;-68
2022/02/06 16:41:06;;;;;;;0.68;0.50;;;;;;;;;;5114803;28;20040;-68
2022/02/06 16:43:32;;;;;;;1.45;0.50;;;;;;;;;;5114597;28;20023;-68
2022/02/06 16:45:58;;;;;;;1.02;0.60;;;;;;;;;;5114478;28;20032;-68
2022/02/06 16:48:25;;;;;;;2.50;0.70;;;;;;;;;;5114334;28;20027;-68
2022/02/06 16:50:51;;;;;;;1.30;0.70;;;;;;;;;;5114584;28;20015;-68
2022/02/06 16:53:18;;;;;;;0.95;0.55;;;;;;;;;;5114437;28;20070;-68
2022/02/06 16:55:44;;;;;;;1.25;0.70;;;;;;;;;;5114182;28;20040;-68
2022/02/06 16:58:10;;;;;;;1.33;0.68;;;;;;;;;;5114025;28;20073;-68
2022/02/06 17:00:37;;;;;;;1.25;0.60;;;;;;;;;;5114492;28;20470;-68
2022/02/06 17:03:03;;;;;;;2.17;0.73;;;;;;;;;;5114285;28;20550;-68
2022/02/06 17:05:29;;;;;;;1.10;0.70;;;;;;;;;;5114220;28;20163;-68
2022/02/06 17:07:56;;;;;;;1.65;0.60;;;;;;;;;;5113760;28;20024;-68
2022/02/06 17:10:23;;;;;;;3.38;0.60;;;;;;;;;;5114390;28;20394;-68
2022/02/06 17:12:49;;;;;;;2.78;0.80;;;;;;;;;;5113690;28;20120;-68
2022/02/06 17:15:15;;;;;;;5.45;0.90;;;;;;;;;;5114010;28;20031;-68
2022/02/06 17:17:41;;;;;;;0.93;0.70;;;;;;;;;;5113863;28;20490;-68
2022/02/06 17:20:07;;;;;;;0.95;0.80;;;;;;;;;;5113679;28;20419;-68